Schneifelwetter: Wetterstation Hallschlag, 537 m . NN
Wetterdaten: Dienstag, 16.03.2010
Datum Zeit Temp. A. Feuchte A. Luftdruck Regen Wind Richtung Richtung Sonnenschein Helligkeit T Regen Taupunkt Windchill
16.03.2010 00:00 2,3 C 95 % 1019 hPa 0,9 l/m 24,6 km/h (4 Bft) W22.5 265 0 min 0 lux 15,00 min 1,6 C -8,5 C
16.03.2010 00:15 2,3 C 95 % 1019 hPa 0,3 l/m 20,7 km/h (4 Bft) W45 275 0 min 0 lux 15,00 min 1,6 C -7,0 C
16.03.2010 00:30 2,3 C 94 % 1019 hPa 0,0 l/m 22,7 km/h (4 Bft) W45 275 0 min 0 lux 0,00 min 1,4 C -7,8 C
16.03.2010 00:45 2,3 C 95 % 1019 hPa 0,3 l/m 21,0 km/h (4 Bft) W22.5 265 0 min 0 lux 15,00 min 1,6 C -7,1 C
16.03.2010 01:00 2,3 C 94 % 1019 hPa 0,0 l/m 26,3 km/h (4 Bft) W45 270 0 min 0 lux 0,00 min 1,4 C -9,0 C
16.03.2010 01:15 2,3 C 95 % 1019 hPa 0,0 l/m 20,5 km/h (4 Bft) W45 270 0 min 0 lux 0,00 min 1,6 C -6,9 C
16.03.2010 01:30 2,3 C 95 % 1019 hPa 0,0 l/m 16,3 km/h (3 Bft) W45 275 0 min 0 lux 0,00 min 1,6 C -4,9 C
16.03.2010 01:45 2,2 C 95 % 1019 hPa 0,0 l/m 16,3 km/h (3 Bft) W45 275 0 min 0 lux 0,00 min 1,5 C -5,0 C
16.03.2010 02:00 2,2 C 96 % 1019 hPa 0,0 l/m 22,5 km/h (4 Bft) W-SW22.5 255 0 min 0 lux 0,00 min 1,6 C -7,8 C
16.03.2010 02:15 2,2 C 96 % 1019 hPa 0,0 l/m 19,3 km/h (3 Bft) W45 265 0 min 0 lux 0,00 min 1,6 C -6,5 C
16.03.2010 02:30 2,3 C 96 % 1019 hPa 0,0 l/m 21,3 km/h (4 Bft) W45 270 0 min 0 lux 0,00 min 1,7 C -7,2 C
16.03.2010 02:46 2,3 C 96 % 1019 hPa 0,6 l/m 22,1 km/h (4 Bft) W22.5 260 0 min 0 lux 16,00 min 1,7 C -7,5 C
16.03.2010 03:01 2,3 C 96 % 1019 hPa 0,0 l/m 21,6 km/h (4 Bft) W45 270 0 min 0 lux 0,00 min 1,7 C -7,3 C
16.03.2010 03:16 2,3 C 96 % 1019 hPa 0,0 l/m 24,6 km/h (4 Bft) W22.5 265 0 min 0 lux 0,00 min 1,7 C -8,5 C
16.03.2010 03:31 2,3 C 96 % 1019 hPa 0,0 l/m 19,6 km/h (3 Bft) W22.5 265 0 min 0 lux 0,00 min 1,7 C -6,5 C
16.03.2010 03:46 2,3 C 96 % 1019 hPa 0,0 l/m 23,7 km/h (4 Bft) W22.5 265 0 min 0 lux 0,00 min 1,7 C -8,1 C
16.03.2010 04:01 2,3 C 95 % 1019 hPa 0,0 l/m 24,9 km/h (4 Bft) W22.5 265 0 min 0 lux 0,00 min 1,6 C -8,6 C
16.03.2010 04:16 2,3 C 95 % 1019 hPa 0,0 l/m 21,2 km/h (4 Bft) W45 260 0 min 0 lux 0,00 min 1,6 C -7,2 C
16.03.2010 04:31 2,3 C 95 % 1019 hPa 0,0 l/m 24,5 km/h (4 Bft) W45 270 0 min 0 lux 0,00 min 1,6 C -8,4 C
16.03.2010 04:46 2,2 C 95 % 1019 hPa 0,0 l/m 22,3 km/h (4 Bft) W45 275 0 min 0 lux 0,00 min 1,5 C -7,7 C
16.03.2010 05:01 2,1 C 95 % 1019 hPa 0,0 l/m 20,9 km/h (4 Bft) W45 270 0 min 0 lux 0,00 min 1,4 C -7,3 C
16.03.2010 05:16 1,9 C 95 % 1019 hPa 0,0 l/m 16,6 km/h (3 Bft) W22.5 260 0 min 0 lux 0,00 min 1,2 C -5,6 C
16.03.2010 05:31 1,7 C 95 % 1019 hPa 0,0 l/m 14,8 km/h (3 Bft) W45 275 0 min 0 lux 0,00 min 1,0 C -4,8 C
16.03.2010 05:46 1,5 C 96 % 1019 hPa 0,0 l/m 18,2 km/h (3 Bft) W22.5 275 0 min 0 lux 0,00 min 0,9 C -6,9 C
16.03.2010 06:01 1,4 C 96 % 1019 hPa 0,3 l/m 16,2 km/h (3 Bft) W45 265 0 min 0 lux 15,00 min 0,8 C -6,0 C
16.03.2010 06:16 1,2 C 96 % 1019 hPa 0,0 l/m 10,8 km/h (2 Bft) W-SW 250 0 min 0 lux 0,00 min 0,6 C -2,7 C
16.03.2010 06:31 1,2 C 96 % 1019 hPa 0,0 l/m 4,4 km/h (1 Bft) W-SW 250 0 min 0 lux 0,00 min 0,6 C 1,2 C
16.03.2010 06:46 1,2 C 96 % 1020 hPa 0,3 l/m 11,3 km/h (2 Bft) W-SW22.5 245 0 min 96 lux 15,00 min 0,6 C -3,1 C
16.03.2010 07:01 1,2 C 96 % 1020 hPa 0,0 l/m 13,9 km/h (3 Bft) W22.5 260 0 min 640 lux 0,00 min 0,6 C -4,9 C
16.03.2010 07:16 1,2 C 96 % 1020 hPa 0,0 l/m 13,8 km/h (3 Bft) W-SW 255 0 min 762 lux 0,00 min 0,6 C -4,8 C
16.03.2010 07:31 1,1 C 96 % 1020 hPa 0,0 l/m 10,1 km/h (2 Bft) W 260 0 min 1,31 klux 0,00 min 0,5 C -2,3 C
16.03.2010 07:46 1,2 C 96 % 1020 hPa 0,0 l/m 11,1 km/h (2 Bft) W-SW22.5 250 0 min 2,25 klux 0,00 min 0,6 C -3,0 C
16.03.2010 08:01 1,3 C 97 % 1021 hPa 0,3 l/m 9,0 km/h (2 Bft) W 265 0 min 4,54 klux 15,00 min 0,9 C -1,2 C
16.03.2010 08:16 1,6 C 97 % 1021 hPa 0,0 l/m 10,5 km/h (2 Bft) W-SW 255 0 min 6,61 klux 0,00 min 1,2 C -2,1 C
16.03.2010 08:31 1,9 C 97 % 1021 hPa 0,0 l/m 8,4 km/h (2 Bft) SW 235 0 min 10,0 klux 0,00 min 1,5 C -0,0 C
16.03.2010 08:45 2,1 C 97 % 1021 hPa 0,0 l/m 9,4 km/h (2 Bft) W 275 0 min 8,91 klux 0,00 min 1,7 C -0,7 C
16.03.2010 09:01 2,4 C 97 % 1021 hPa 0,0 l/m 7,8 km/h (2 Bft) W-NW 290 0 min 13,8 klux 0,00 min 2,0 C 1,1 C
16.03.2010 09:16 2,5 C 96 % 1022 hPa 0,0 l/m 8,6 km/h (2 Bft) W-NW 290 0 min 14,2 klux 0,00 min 1,9 C 0,4 C
16.03.2010 09:31 2,7 C 96 % 1022 hPa 0,0 l/m 12,3 km/h (3 Bft) W22.5 280 0 min 10,1 klux 0,00 min 2,1 C -2,1 C
16.03.2010 09:46 3,1 C 95 % 1022 hPa 0,0 l/m 12,0 km/h (2 Bft) W-SW 255 0 min 16,3 klux 0,00 min 2,4 C -1,4 C
16.03.2010 10:01 3,3 C 95 % 1022 hPa 0,0 l/m 12,5 km/h (3 Bft) W22.5 260 0 min 13,3 klux 0,00 min 2,6 C -1,5 C
16.03.2010 10:16 3,1 C 94 % 1022 hPa 0,0 l/m 10,8 km/h (2 Bft) W22.5 260 0 min 9,3 klux 0,00 min 2,2 C -0,6 C
16.03.2010 10:30 3,2 C 95 % 1023 hPa 0,0 l/m 14,7 km/h (3 Bft) W22.5 270 0 min 10,4 klux 0,00 min 2,5 C -2,9 C
16.03.2010 10:45 3,1 C 94 % 1023 hPa 0,0 l/m 11,7 km/h (2 Bft) W22.5 280 0 min 10,5 klux 0,00 min 2,2 C -1,2 C
16.03.2010 11:01 3,3 C 93 % 1023 hPa 0,0 l/m 9,6 km/h (2 Bft) W-NW22.5 300 0 min 11,9 klux 0,00 min 2,3 C 0,5 C
16.03.2010 11:16 3,5 C 93 % 1023 hPa 0,0 l/m 9,1 km/h (2 Bft) W-NW22.5 285 0 min 11,8 klux 0,00 min 2,5 C 1,1 C
16.03.2010 11:31 3,5 C 92 % 1023 hPa 0,0 l/m 12,7 km/h (3 Bft) W45 270 0 min 13,4 klux 0,00 min 2,3 C -1,4 C
16.03.2010 11:46 2,9 C 92 % 1023 hPa 0,0 l/m 18,2 km/h (3 Bft) W22.5 270 0 min 8,57 klux 0,00 min 1,7 C -5,1 C
16.03.2010 12:01 3,5 C 94 % 1023 hPa 0,0 l/m 15,1 km/h (3 Bft) W22.5 270 15 min 38,5 klux 0,00 min 2,6 C -2,8 C
16.03.2010 12:15 4,0 C 92 % 1023 hPa 0,0 l/m 15,6 km/h (3 Bft) W45 275 14 min 27,7 klux 0,00 min 2,8 C -2,4 C
16.03.2010 12:30 3,9 C 90 % 1023 hPa 0,0 l/m 18,3 km/h (3 Bft) W22.5 260 0 min 14,1 klux 0,00 min 2,4 C -3,9 C
16.03.2010 12:46 4,0 C 90 % 1023 hPa 0,0 l/m 12,0 km/h (2 Bft) W-SW22.5 250 0 min 21,9 klux 0,00 min 2,5 C -0,4 C
16.03.2010 13:01 4,5 C 89 % 1024 hPa 0,0 l/m 12,5 km/h (3 Bft) W22.5 270 15 min 26,7 klux 0,00 min 2,8 C -0,1 C
16.03.2010 13:16 4,3 C 88 % 1024 hPa 0,0 l/m 15,0 km/h (3 Bft) W-SW22.5 255 0 min 13,6 klux 0,00 min 2,5 C -1,8 C
16.03.2010 13:31 4,2 C 88 % 1024 hPa 0,0 l/m 13,3 km/h (3 Bft) W 260 0 min 12,9 klux 0,00 min 2,4 C -1,0 C
16.03.2010 13:46 4,2 C 88 % 1024 hPa 0,0 l/m 14,1 km/h (3 Bft) W 260 0 min 16,4 klux 0,00 min 2,4 C -1,4 C
16.03.2010 14:00 4,3 C 88 % 1023 hPa 0,0 l/m 11,1 km/h (2 Bft) W22.5 265 0 min 19,4 klux 0,00 min 2,5 C 0,5 C
16.03.2010 14:15 4,6 C 87 % 1023 hPa 0,0 l/m 13,3 km/h (3 Bft) W 260 0 min 23,7 klux 0,00 min 2,6 C -0,5 C
16.03.2010 14:31 4,4 C 86 % 1023 hPa 0,0 l/m 15,5 km/h (3 Bft) W 265 0 min 15,4 klux 0,00 min 2,3 C -1,9 C
16.03.2010 14:46 4,3 C 87 % 1023 hPa 0,0 l/m 15,3 km/h (3 Bft) W22.5 270 0 min 20,3 klux 0,00 min 2,3 C -1,9 C
16.03.2010 15:01 4,7 C 85 % 1023 hPa 0,0 l/m 10,0 km/h (2 Bft) W-NW22.5 285 0 min 22,3 klux 0,00 min 2,4 C 1,7 C
16.03.2010 15:16 4,9 C 84 % 1023 hPa 0,0 l/m 15,3 km/h (3 Bft) W-SW22.5 250 0 min 18,7 klux 0,00 min 2,4 C -1,2 C
16.03.2010 15:31 4,8 C 86 % 1023 hPa 0,0 l/m 14,9 km/h (3 Bft) W-SW22.5 250 0 min 7,84 klux 0,00 min 2,7 C -1,1 C
16.03.2010 15:46 4,7 C 87 % 1024 hPa 0,0 l/m 16,5 km/h (3 Bft) W-SW22.5 250 0 min 17,8 klux 0,00 min 2,7 C -2,0 C
16.03.2010 16:00 5,2 C 86 % 1024 hPa 0,0 l/m 16,4 km/h (3 Bft) W-SW 250 0 min 19,1 klux 0,00 min 3,1 C -1,4 C
16.03.2010 16:16 4,9 C 86 % 1024 hPa 0,0 l/m 13,4 km/h (3 Bft) W-SW22.5 245 0 min 8,62 klux 0,00 min 2,8 C -0,2 C
16.03.2010 16:31 4,7 C 86 % 1024 hPa 0,0 l/m 21,5 km/h (4 Bft) W-SW22.5 250 0 min 8,25 klux 0,00 min 2,6 C -4,1 C
16.03.2010 16:46 4,7 C 87 % 1024 hPa 0,0 l/m 16,3 km/h (3 Bft) W-SW22.5 250 0 min 8,15 klux 0,00 min 2,7 C -1,9 C
16.03.2010 17:01 4,7 C 86 % 1024 hPa 0,0 l/m 11,4 km/h (2 Bft) W-SW22.5 255 0 min 9,3 klux 0,00 min 2,6 C 0,8 C
16.03.2010 17:16 4,6 C 86 % 1024 hPa 0,0 l/m 16,1 km/h (3 Bft) W22.5 260 0 min 13,0 klux 0,00 min 2,5 C -2,0 C
16.03.2010 17:31 4,4 C 85 % 1024 hPa 0,0 l/m 4,8 km/h (1 Bft) W 260 0 min 11,5 klux 0,00 min 2,1 C 4,4 C
16.03.2010 17:45 3,9 C 85 % 1024 hPa 0,0 l/m 9,4 km/h (2 Bft) W-SW 245 0 min 9,1 klux 0,00 min 1,6 C 1,3 C
16.03.2010 18:01 3,3 C 85 % 1024 hPa 0,0 l/m 3,7 km/h (1 Bft) W-SW 245 0 min 5,51 klux 0,00 min 1,0 C 3,3 C
16.03.2010 18:16 2,6 C 86 % 1024 hPa 0,0 l/m 0,0 km/h (0 Bft) W-SW 240 0 min 4,58 klux 0,00 min 0,5 C 2,6 C
16.03.2010 18:31 1,9 C 87 % 1024 hPa 0,0 l/m 0,0 km/h (0 Bft) W-SW 240 0 min 2,74 klux 0,00 min -0,0 C 1,9 C
16.03.2010 18:46 1,2 C 88 % 1024 hPa 0,0 l/m 0,0 km/h (0 Bft) W-SW 240 0 min 1,01 klux 0,00 min -0,6 C 1,2 C
16.03.2010 19:01 0,4 C 88 % 1024 hPa 0,0 l/m 0,0 km/h (0 Bft) W-SW 240 0 min 182 lux 0,00 min -1,3 C 0,4 C
16.03.2010 19:15 -0,3 C 89 % 1024 hPa 0,0 l/m 0,0 km/h (0 Bft) W-SW 240 0 min 29 lux 0,00 min -1,9 C -0,3 C
16.03.2010 19:30 -0,7 C 90 % 1024 hPa 0,0 l/m 0,0 km/h (0 Bft) W-SW 240 0 min 1 lux 0,00 min -2,1 C -0,7 C
16.03.2010 19:46 -1,1 C 91 % 1024 hPa 0,0 l/m 0,0 km/h (0 Bft) W-SW 240 0 min 0 lux 0,00 min -2,4 C -1,1 C
16.03.2010 20:01 -1,5 C 91 % 1024 hPa 0,0 l/m 0,0 km/h (0 Bft) W-SW 240 0 min 0 lux 0,00 min -2,8 C -1,5 C
16.03.2010 20:16 -1,7 C 92 % 1024 hPa 0,0 l/m 0,0 km/h (0 Bft) W-SW 240 0 min 0 lux 0,00 min -2,8 C -1,7 C
16.03.2010 20:31 -1,8 C 92 % 1024 hPa 0,0 l/m 0,0 km/h (0 Bft) W-SW 240 0 min 0 lux 0,00 min -2,9 C -1,8 C
16.03.2010 20:46 -2,0 C 93 % 1024 hPa 0,0 l/m 0,0 km/h (0 Bft) W-SW 245 0 min 0 lux 0,00 min -3,0 C -2,0 C
16.03.2010 21:00 -2,2 C 93 % 1024 hPa 0,0 l/m 0,0 km/h (0 Bft) W-SW 240 0 min 0 lux 0,00 min -3,2 C -2,2 C
16.03.2010 21:15 -2,4 C 93 % 1024 hPa 0,0 l/m 0,0 km/h (0 Bft) W-SW 240 0 min 0 lux 0,00 min -3,4 C -2,4 C
16.03.2010 21:31 -2,6 C 93 % 1024 hPa 0,0 l/m 0,0 km/h (0 Bft) W-SW 240 0 min 0 lux 0,00 min -3,6 C -2,6 C
16.03.2010 21:46 -3,0 C 94 % 1025 hPa 0,0 l/m 4,9 km/h (1 Bft) W-SW 240 0 min 0 lux 0,00 min -3,8 C -3,0 C
16.03.2010 22:01 -2,9 C 94 % 1025 hPa 0,0 l/m 4,2 km/h (1 Bft) W-SW 240 0 min 0 lux 0,00 min -3,7 C -2,9 C
16.03.2010 22:16 -3,1 C 94 % 1025 hPa 0,0 l/m 0,0 km/h (0 Bft) W-SW 240 0 min 0 lux 0,00 min -3,9 C -3,1 C
16.03.2010 22:31 -3,0 C 94 % 1025 hPa 0,0 l/m 0,0 km/h (0 Bft) W-SW 240 0 min 0 lux 0,00 min -3,8 C -3,0 C
16.03.2010 22:45 -2,9 C 95 % 1024 hPa 0,0 l/m 3,9 km/h (1 Bft) W-SW 240 0 min 0 lux 0,00 min -3,6 C -2,9 C
16.03.2010 23:00 -2,8 C 95 % 1025 hPa 0,0 l/m 3,1 km/h (1 Bft) W-SW 240 0 min 0 lux 0,00 min -3,5 C -2,8 C
16.03.2010 23:16 -2,8 C 95 % 1025 hPa 0,0 l/m 0,0 km/h (0 Bft) W-SW 240 0 min 0 lux 0,00 min -3,5 C -2,8 C
16.03.2010 23:31 -3,1 C 95 % 1024 hPa 0,0 l/m 2,5 km/h (1 Bft) W-SW 240 0 min 0 lux 0,00 min -3,8 C -3,1 C
16.03.2010 23:46 -3,2 C 95 % 1024 hPa 0,0 l/m 4,2 km/h (1 Bft) W-SW 240 0 min 0 lux 0,00 min -3,9 C -3,2 C
16.03.2010 23:55 -3,2 C 95 % 1024 hPa 0,0 l/m 3,1 km/h (1 Bft) W-SW 240 0 min 0 lux 0,00 min -3,9 C -3,2 C
_ Min-Zeit 23:46 15:16 00:00 - 18:16 - - - - - 22:16 01:00
Minimum _ -3,2 C 84 % 1019 hPa - 0,0 km/h (0 Bft) - - - - - -3,9 C -9,0 C
_ Max-Zeit 16:00 08:01 21:46 00:00 01:00 - - 12:01 12:01 02:46 16:00 17:31
Maximum _ 5,2 C 97 % 1025 hPa 0,9 l/m 26,3 km/h
W (4 Bft)
- - 15 min 38,5 klux 16,00 min 3,1 C 4,4 C
Durchschnitt _ 1,8 C 92 % 1022 hPa #3,0 l/m 11,8 km/h (2 Bft) W - #44 min. 6,15 klux #1:46 h 0,7 C -2,8 C